QTR1809 EGLL-LROP
Flight info
| Callsign | QTR1809 |
|---|---|
| Flight time | 2h 27m |
| Altitude | 37000 |
| Route | BPK Q295 BRAIN M197 REDFA DCT TACHA DCT SUSET DCT OTMEC DCT KUMER DCT OMELO DCT OMIFU DCT TIBLA DCT MAKAL DCT PITOK DCT PERIT DCT BADOR DCT DENAK |
| Aircraft | B38M/M-SDE1FGHILORVWXY/HB1 |
Departure
| Time | 2026-05-07 20:07 |
|---|---|
| Airport | London Heathrow Airport (EGLL) |
Arrival
| Time | 2026-05-07 22:34 |
|---|---|
| Airport | Bucharest Henri Coandă International Airport (LROP) |
| Time | Latitude | Longitude | Altitude | Speed | Heading |
|---|---|---|---|---|---|
| 2026-05-07 18:10 | 51.46211 | -0.44412 | 91 ft | 0 kts | 292° |
| 2026-05-07 19:45 | 51.46209 | -0.44402 | 89 ft | 3 kts | 292° |
| 2026-05-07 19:46 | 51.46202 | -0.44376 | 89 ft | 3 kts | 292° |
| 2026-05-07 19:46 | 51.46196 | -0.44350 | 94 ft | 2 kts | 292° |
| 2026-05-07 19:46 | 51.46190 | -0.44324 | 90 ft | 3 kts | 314° |
| 2026-05-07 19:46 | 51.46174 | -0.44312 | 90 ft | 3 kts | 18° |
| 2026-05-07 19:47 | 51.46160 | -0.44330 | 92 ft | 3 kts | 79° |
| 2026-05-07 19:47 | 51.46161 | -0.44361 | 89 ft | 3 kts | 110° |
| 2026-05-07 19:47 | 51.46162 | -0.44365 | 89 ft | 0 kts | 110° |
| 2026-05-07 19:51 | 51.46161 | -0.44363 | 89 ft | 3 kts | 107° |
| 2026-05-07 19:51 | 51.46171 | -0.44307 | 91 ft | 5 kts | 45° |
| 2026-05-07 19:51 | 51.46187 | -0.44294 | 91 ft | 0 kts | 40° |
| 2026-05-07 19:52 | 51.46189 | -0.44288 | 91 ft | 2 kts | 57° |
| 2026-05-07 19:52 | 51.46190 | -0.44275 | 90 ft | 0 kts | 89° |
| 2026-05-07 19:52 | 51.46189 | -0.44272 | 91 ft | 0 kts | 98° |
| 2026-05-07 19:52 | 51.46191 | -0.44261 | 92 ft | 5 kts | 78° |
| 2026-05-07 19:53 | 51.46206 | -0.44247 | 93 ft | 0 kts | 355° |
| 2026-05-07 19:53 | 51.46210 | -0.44247 | 93 ft | 1 kts | 355° |
| 2026-05-07 19:53 | 51.46222 | -0.44249 | 92 ft | 2 kts | 355° |
| 2026-05-07 19:53 | 51.46223 | -0.44249 | 92 ft | 0 kts | 355° |
| 2026-05-07 19:54 | 51.46224 | -0.44249 | 91 ft | 1 kts | 355° |
| 2026-05-07 19:54 | 51.46232 | -0.44250 | 94 ft | 2 kts | 355° |
| 2026-05-07 19:54 | 51.46243 | -0.44248 | 93 ft | 2 kts | 8° |
| 2026-05-07 19:55 | 51.46254 | -0.44242 | 91 ft | 2 kts | 20° |
| 2026-05-07 19:55 | 51.46275 | -0.44228 | 94 ft | 5 kts | 21° |
| 2026-05-07 19:55 | 51.46321 | -0.44244 | 95 ft | 8 kts | 315° |
| 2026-05-07 19:55 | 51.46329 | -0.44354 | 94 ft | 13 kts | 270° |
| 2026-05-07 19:56 | 51.46327 | -0.44532 | 94 ft | 18 kts | 269° |
| 2026-05-07 19:56 | 51.46318 | -0.44731 | 92 ft | 15 kts | 269° |
| 2026-05-07 19:56 | 51.46319 | -0.44923 | 92 ft | 19 kts | 270° |
| 2026-05-07 19:56 | 51.46318 | -0.45139 | 94 ft | 20 kts | 269° |
| 2026-05-07 19:57 | 51.46318 | -0.45376 | 94 ft | 19 kts | 270° |
| 2026-05-07 19:57 | 51.46318 | -0.45553 | 96 ft | 15 kts | 270° |
| 2026-05-07 19:57 | 51.46327 | -0.45735 | 94 ft | 18 kts | 273° |
| 2026-05-07 19:57 | 51.46325 | -0.45940 | 92 ft | 19 kts | 269° |
| 2026-05-07 19:58 | 51.46323 | -0.46151 | 92 ft | 20 kts | 270° |
| 2026-05-07 19:58 | 51.46323 | -0.46304 | 90 ft | 21 kts | 270° |
| 2026-05-07 19:58 | 51.46323 | -0.46511 | 91 ft | 10 kts | 270° |
| 2026-05-07 19:58 | 51.46324 | -0.46586 | 91 ft | 10 kts | 278° |
| 2026-05-07 19:59 | 51.46335 | -0.46679 | 93 ft | 6 kts | 270° |
| 2026-05-07 19:59 | 51.46334 | -0.46754 | 93 ft | 6 kts | 264° |
| 2026-05-07 19:59 | 51.46328 | -0.46795 | 92 ft | 6 kts | 256° |
| 2026-05-07 19:59 | 51.46322 | -0.46871 | 90 ft | 7 kts | 269° |
| 2026-05-07 20:00 | 51.46323 | -0.46944 | 93 ft | 6 kts | 270° |
| 2026-05-07 20:00 | 51.46323 | -0.47012 | 92 ft | 6 kts | 270° |
| 2026-05-07 20:00 | 51.46323 | -0.47082 | 92 ft | 7 kts | 270° |
| 2026-05-07 20:00 | 51.46323 | -0.47162 | 92 ft | 8 kts | 270° |
| 2026-05-07 20:01 | 51.46322 | -0.47261 | 91 ft | 10 kts | 269° |
| 2026-05-07 20:01 | 51.46328 | -0.47364 | 93 ft | 8 kts | 287° |
| 2026-05-07 20:01 | 51.46339 | -0.47455 | 92 ft | 8 kts | 275° |
| 2026-05-07 20:01 | 51.46342 | -0.47549 | 92 ft | 9 kts | 271° |
| 2026-05-07 20:02 | 51.46332 | -0.47650 | 95 ft | 9 kts | 251° |
| 2026-05-07 20:02 | 51.46301 | -0.47741 | 92 ft | 10 kts | 240° |
| 2026-05-07 20:02 | 51.46261 | -0.47856 | 94 ft | 16 kts | 244° |
| 2026-05-07 20:02 | 51.46250 | -0.48032 | 92 ft | 16 kts | 268° |
| 2026-05-07 20:03 | 51.46247 | -0.48219 | 88 ft | 18 kts | 268° |
| 2026-05-07 20:03 | 51.46250 | -0.48410 | 88 ft | 16 kts | 271° |
| 2026-05-07 20:03 | 51.46253 | -0.48576 | 90 ft | 15 kts | 279° |
| 2026-05-07 20:03 | 51.46297 | -0.48698 | 90 ft | 3 kts | 323° |
| 2026-05-07 20:05 | 51.46339 | -0.48731 | 91 ft | 15 kts | 343° |
| 2026-05-07 20:05 | 51.46423 | -0.48752 | 98 ft | 10 kts | 4° |
| 2026-05-07 20:06 | 51.46472 | -0.48693 | 97 ft | 10 kts | 71° |
| 2026-05-07 20:06 | 51.46477 | -0.48275 | 95 ft | 72 kts | 90° |
| 2026-05-07 20:06 | 51.46481 | -0.47119 | 91 ft | 133 kts | 89° |
| 2026-05-07 20:06 | 51.46486 | -0.45432 | 356 ft | 162 kts | 91° |
| 2026-05-07 20:07 | 51.46500 | -0.43420 | 760 ft | 187 kts | 90° |
| 2026-05-07 20:07 | 51.46747 | -0.41315 | 1400 ft | 206 kts | 63° |
| 2026-05-07 20:07 | 51.47467 | -0.39270 | 2342 ft | 210 kts | 63° |
| 2026-05-07 20:07 | 51.48152 | -0.37228 | 3242 ft | 205 kts | 63° |
| 2026-05-07 20:08 | 51.48824 | -0.35230 | 4081 ft | 201 kts | 63° |
| 2026-05-07 20:08 | 51.49482 | -0.33275 | 4855 ft | 199 kts | 62° |
| 2026-05-07 20:08 | 51.50137 | -0.31334 | 5542 ft | 198 kts | 62° |
| 2026-05-07 20:08 | 51.50798 | -0.29376 | 6202 ft | 199 kts | 62° |
| 2026-05-07 20:09 | 51.51466 | -0.27402 | 6638 ft | 210 kts | 61° |
| 2026-05-07 20:09 | 51.52265 | -0.25225 | 5400 ft | 253 kts | 58° |
| 2026-05-07 20:09 | 51.53382 | -0.22546 | 4118 ft | 327 kts | 55° |
| 2026-05-07 20:10 | 51.56488 | -0.15824 | 3447 ft | 407 kts | 53° |
| 2026-05-07 20:10 | 51.58239 | -0.12063 | 3437 ft | 428 kts | 54° |
| 2026-05-07 20:10 | 51.60052 | -0.08129 | 3450 ft | 445 kts | 54° |
| 2026-05-07 20:10 | 51.61892 | -0.04079 | 3441 ft | 440 kts | 55° |
| 2026-05-07 20:11 | 51.63608 | -0.00255 | 3194 ft | 405 kts | 55° |
| 2026-05-07 20:11 | 51.64741 | 0.02283 | 2938 ft | 388 kts | 56° |
| 2026-05-07 20:11 | 51.65126 | 0.03149 | 2837 ft | 383 kts | 56° |
| 2026-05-07 20:11 | 51.66207 | 0.05824 | 2767 ft | 364 kts | 62° |
| 2026-05-07 20:12 | 51.66889 | 0.07977 | 3034 ft | 339 kts | 66° |
| 2026-05-07 20:12 | 51.67789 | 0.11222 | 3998 ft | 289 kts | 68° |
| 2026-05-07 20:12 | 51.68492 | 0.13945 | 4929 ft | 244 kts | 68° |
| 2026-05-07 20:12 | 51.69078 | 0.16332 | 5842 ft | 219 kts | 69° |
| 2026-05-07 20:13 | 51.69611 | 0.18544 | 6780 ft | 204 kts | 69° |
| 2026-05-07 20:13 | 51.70102 | 0.20565 | 7656 ft | 182 kts | 69° |
| 2026-05-07 20:13 | 51.70553 | 0.22399 | 8199 ft | 176 kts | 69° |
| 2026-05-07 20:13 | 51.71020 | 0.24289 | 8389 ft | 185 kts | 69° |
| 2026-05-07 20:14 | 51.71496 | 0.26193 | 8786 ft | 179 kts | 69° |
| 2026-05-07 20:14 | 51.71960 | 0.28035 | 9060 ft | 181 kts | 69° |
| 2026-05-07 20:14 | 51.72441 | 0.29957 | 9282 ft | 186 kts | 69° |
| 2026-05-07 20:14 | 51.72924 | 0.31887 | 9640 ft | 182 kts | 69° |
| 2026-05-07 20:15 | 51.73392 | 0.33750 | 9806 ft | 189 kts | 69° |
| 2026-05-07 20:15 | 51.73900 | 0.35765 | 10131 ft | 186 kts | 69° |
| 2026-05-07 20:15 | 51.74379 | 0.37664 | 10448 ft | 183 kts | 69° |
| 2026-05-07 20:15 | 51.75032 | 0.39525 | 10352 ft | 203 kts | 64° |
| 2026-05-07 20:16 | 51.75642 | 0.41638 | 10588 ft | 202 kts | 68° |
| 2026-05-07 20:16 | 51.76172 | 0.43674 | 11142 ft | 191 kts | 69° |
| 2026-05-07 20:16 | 51.76650 | 0.45622 | 11517 ft | 184 kts | 72° |
| 2026-05-07 20:16 | 51.77084 | 0.47623 | 11543 ft | 198 kts | 73° |
| 2026-05-07 20:17 | 51.77532 | 0.49739 | 11818 ft | 200 kts | 73° |
| 2026-05-07 20:17 | 51.77985 | 0.51873 | 12116 ft | 202 kts | 73° |
| 2026-05-07 20:17 | 51.78439 | 0.54028 | 12407 ft | 204 kts | 76° |
| 2026-05-07 20:17 | 51.78837 | 0.56233 | 12699 ft | 206 kts | 77° |
| 2026-05-07 20:18 | 51.79223 | 0.58491 | 12995 ft | 209 kts | 77° |
| 2026-05-07 20:18 | 51.79610 | 0.60780 | 13305 ft | 213 kts | 77° |
| 2026-05-07 20:18 | 51.80007 | 0.63110 | 13601 ft | 217 kts | 76° |
| 2026-05-07 20:18 | 51.80441 | 0.65456 | 13919 ft | 220 kts | 75° |
| 2026-05-07 20:19 | 51.80897 | 0.67858 | 14203 ft | 224 kts | 75° |
| 2026-05-07 20:19 | 51.81502 | 0.70186 | 14491 ft | 227 kts | 62° |
| 2026-05-07 20:19 | 51.82126 | 0.72529 | 14788 ft | 228 kts | 73° |
| 2026-05-07 20:19 | 51.82630 | 0.74980 | 15070 ft | 232 kts | 75° |
| 2026-05-07 20:20 | 51.83126 | 0.77565 | 15107 ft | 250 kts | 75° |
| 2026-05-07 20:20 | 51.83648 | 0.80352 | 15237 ft | 263 kts | 75° |
| 2026-05-07 20:20 | 51.84174 | 0.83180 | 15586 ft | 269 kts | 75° |
| 2026-05-07 20:20 | 51.84715 | 0.86114 | 15880 ft | 276 kts | 75° |
| 2026-05-07 20:21 | 51.85267 | 0.89135 | 16191 ft | 283 kts | 75° |
| 2026-05-07 20:21 | 51.85830 | 0.92244 | 16502 ft | 291 kts | 75° |
| 2026-05-07 20:21 | 51.86402 | 0.95424 | 16804 ft | 298 kts | 75° |
| 2026-05-07 20:21 | 51.86944 | 0.98707 | 17097 ft | 305 kts | 77° |
| 2026-05-07 20:22 | 51.87460 | 1.02094 | 17392 ft | 313 kts | 76° |
| 2026-05-07 20:22 | 51.88040 | 1.05525 | 17704 ft | 321 kts | 75° |
| 2026-05-07 20:22 | 51.88660 | 1.09037 | 18008 ft | 328 kts | 75° |
| 2026-05-07 20:22 | 51.89278 | 1.12641 | 18314 ft | 335 kts | 76° |
| 2026-05-07 20:23 | 51.89881 | 1.16251 | 18572 ft | 337 kts | 76° |
| 2026-05-07 20:23 | 51.90500 | 1.19934 | 18824 ft | 343 kts | 75° |
| 2026-05-07 20:23 | 51.91140 | 1.23715 | 19089 ft | 350 kts | 75° |
| 2026-05-07 20:23 | 51.91787 | 1.27546 | 19350 ft | 357 kts | 75° |
| 2026-05-07 20:24 | 51.92442 | 1.31448 | 19616 ft | 363 kts | 75° |
| 2026-05-07 20:24 | 51.93115 | 1.35471 | 19884 ft | 370 kts | 75° |
| 2026-05-07 20:24 | 51.93793 | 1.39525 | 20151 ft | 376 kts | 75° |
| 2026-05-07 20:24 | 51.94479 | 1.43640 | 20420 ft | 381 kts | 75° |
| 2026-05-07 20:25 | 51.95177 | 1.47829 | 20682 ft | 387 kts | 75° |
| 2026-05-07 20:25 | 51.95876 | 1.52043 | 20947 ft | 389 kts | 75° |
| 2026-05-07 20:25 | 51.96565 | 1.56209 | 21207 ft | 391 kts | 75° |
| 2026-05-07 20:25 | 51.97283 | 1.60555 | 21477 ft | 393 kts | 75° |
| 2026-05-07 20:26 | 51.97988 | 1.64835 | 21747 ft | 394 kts | 75° |
| 2026-05-07 20:26 | 51.98700 | 1.69168 | 22016 ft | 396 kts | 75° |
| 2026-05-07 20:26 | 51.99400 | 1.73440 | 22280 ft | 398 kts | 75° |
| 2026-05-07 20:26 | 52.00121 | 1.77851 | 22561 ft | 400 kts | 75° |
| 2026-05-07 20:27 | 52.00832 | 1.82212 | 22832 ft | 402 kts | 75° |
| 2026-05-07 20:27 | 52.01549 | 1.86620 | 23109 ft | 404 kts | 75° |
| 2026-05-07 20:27 | 52.02255 | 1.90972 | 23376 ft | 405 kts | 75° |
| 2026-05-07 20:27 | 52.02971 | 1.95402 | 23794 ft | 405 kts | 75° |
| 2026-05-07 20:28 | 52.03685 | 1.99827 | 24139 ft | 405 kts | 76° |
| 2026-05-07 20:28 | 52.04397 | 2.04250 | 24493 ft | 405 kts | 76° |
| 2026-05-07 20:28 | 52.05105 | 2.08665 | 24854 ft | 404 kts | 76° |
| 2026-05-07 20:28 | 52.05813 | 2.13084 | 25210 ft | 404 kts | 76° |
| 2026-05-07 20:29 | 52.06519 | 2.17510 | 25560 ft | 403 kts | 76° |
| 2026-05-07 20:29 | 52.07218 | 2.21899 | 25797 ft | 406 kts | 76° |
| 2026-05-07 20:29 | 52.07932 | 2.26398 | 26052 ft | 408 kts | 76° |
| 2026-05-07 20:29 | 52.08643 | 2.30888 | 26304 ft | 410 kts | 76° |
| 2026-05-07 20:30 | 52.09347 | 2.35345 | 26557 ft | 412 kts | 76° |
| 2026-05-07 20:30 | 52.10060 | 2.39869 | 26825 ft | 414 kts | 76° |
| 2026-05-07 20:30 | 52.10775 | 2.44422 | 27079 ft | 415 kts | 76° |
| 2026-05-07 20:30 | 52.11500 | 2.48976 | 27339 ft | 417 kts | 73° |
| 2026-05-07 20:31 | 52.12387 | 2.53480 | 27604 ft | 417 kts | 73° |
| 2026-05-07 20:31 | 52.13230 | 2.57991 | 27875 ft | 418 kts | 73° |
| 2026-05-07 20:31 | 52.14072 | 2.62544 | 28139 ft | 419 kts | 73° |
| 2026-05-07 20:31 | 52.14941 | 2.67087 | 28418 ft | 420 kts | 72° |
| 2026-05-07 20:32 | 52.15817 | 2.71629 | 28700 ft | 421 kts | 73° |
| 2026-05-07 20:32 | 52.16679 | 2.76189 | 28971 ft | 421 kts | 73° |
| 2026-05-07 20:32 | 52.17532 | 2.80747 | 29252 ft | 422 kts | 73° |
| 2026-05-07 20:32 | 52.18383 | 2.85278 | 29524 ft | 422 kts | 73° |
| 2026-05-07 20:33 | 52.19246 | 2.89853 | 29805 ft | 422 kts | 73° |
| 2026-05-07 20:33 | 52.20107 | 2.94438 | 30091 ft | 422 kts | 73° |
| 2026-05-07 20:33 | 52.20959 | 2.99006 | 30335 ft | 422 kts | 73° |
| 2026-05-07 20:33 | 52.21814 | 3.03600 | 30576 ft | 422 kts | 73° |
| 2026-05-07 20:34 | 52.22662 | 3.08158 | 30813 ft | 421 kts | 73° |
| 2026-05-07 20:34 | 52.23512 | 3.12734 | 31061 ft | 421 kts | 73° |
| 2026-05-07 20:34 | 52.24359 | 3.17315 | 31317 ft | 421 kts | 73° |
| 2026-05-07 20:34 | 52.25180 | 3.21900 | 31549 ft | 419 kts | 79° |
| 2026-05-07 20:35 | 52.25448 | 3.26587 | 31868 ft | 415 kts | 96° |
| 2026-05-07 20:35 | 52.25212 | 3.31264 | 32142 ft | 412 kts | 97° |
| 2026-05-07 20:35 | 52.24916 | 3.35918 | 32399 ft | 411 kts | 97° |
| 2026-05-07 20:35 | 52.24617 | 3.40548 | 32650 ft | 410 kts | 97° |
| 2026-05-07 20:36 | 52.24340 | 3.45196 | 32909 ft | 409 kts | 97° |
| 2026-05-07 20:36 | 52.24073 | 3.49754 | 33166 ft | 408 kts | 97° |
| 2026-05-07 20:36 | 52.23789 | 3.54352 | 33420 ft | 407 kts | 97° |
| 2026-05-07 20:36 | 52.23499 | 3.58934 | 33677 ft | 405 kts | 97° |
| 2026-05-07 20:37 | 52.23214 | 3.63498 | 33954 ft | 404 kts | 97° |
| 2026-05-07 20:37 | 52.22932 | 3.68052 | 34194 ft | 402 kts | 97° |
| 2026-05-07 20:37 | 52.22517 | 3.74616 | 34499 ft | 400 kts | 97° |
| 2026-05-07 20:37 | 52.22172 | 3.80004 | 34766 ft | 398 kts | 97° |
| 2026-05-07 20:38 | 52.21885 | 3.84494 | 34981 ft | 396 kts | 97° |
| 2026-05-07 20:38 | 52.21598 | 3.88947 | 35199 ft | 394 kts | 97° |
| 2026-05-07 20:38 | 52.21308 | 3.93412 | 35428 ft | 392 kts | 97° |
| 2026-05-07 20:38 | 52.21020 | 3.97819 | 35644 ft | 390 kts | 97° |
| 2026-05-07 20:39 | 52.20733 | 4.02195 | 35867 ft | 388 kts | 97° |
| 2026-05-07 20:39 | 52.20445 | 4.06558 | 36090 ft | 385 kts | 98° |
| 2026-05-07 20:39 | 52.20158 | 4.10879 | 36325 ft | 383 kts | 98° |
| 2026-05-07 20:39 | 52.19871 | 4.15169 | 36535 ft | 380 kts | 98° |
| 2026-05-07 20:40 | 52.19588 | 4.19388 | 36761 ft | 376 kts | 98° |
| 2026-05-07 20:40 | 52.19303 | 4.23607 | 36987 ft | 373 kts | 98° |
| 2026-05-07 20:40 | 52.19018 | 4.27801 | 37069 ft | 374 kts | 98° |
| 2026-05-07 20:41 | 52.17861 | 4.44621 | 37059 ft | 387 kts | 98° |
| 2026-05-07 20:41 | 52.16928 | 4.57923 | 37088 ft | 398 kts | 98° |
| 2026-05-07 20:42 | 52.16010 | 4.70810 | 37122 ft | 410 kts | 98° |
| 2026-05-07 20:42 | 52.15353 | 4.79916 | 37115 ft | 418 kts | 98° |
| 2026-05-07 20:43 | 52.14657 | 4.89441 | 37122 ft | 427 kts | 98° |
| 2026-05-07 20:43 | 52.13941 | 4.99141 | 37112 ft | 436 kts | 98° |
| 2026-05-07 20:44 | 52.13140 | 5.09867 | 37109 ft | 446 kts | 98° |
| 2026-05-07 20:44 | 52.11538 | 5.28797 | 37090 ft | 464 kts | 99° |
| 2026-05-07 20:45 | 52.10651 | 5.39287 | 37096 ft | 470 kts | 99° |
| 2026-05-07 20:45 | 52.09721 | 5.49767 | 37083 ft | 466 kts | 99° |
| 2026-05-07 20:46 | 52.08951 | 5.58499 | 37089 ft | 469 kts | 99° |
| 2026-05-07 20:46 | 52.08014 | 5.68986 | 37112 ft | 469 kts | 99° |
| 2026-05-07 20:47 | 52.06955 | 5.80693 | 37111 ft | 477 kts | 99° |
| 2026-05-07 20:47 | 52.05986 | 5.91468 | 37103 ft | 487 kts | 99° |
| 2026-05-07 20:48 | 52.05005 | 6.02460 | 37114 ft | 496 kts | 99° |
| 2026-05-07 20:48 | 52.03981 | 6.13651 | 37104 ft | 504 kts | 99° |
| 2026-05-07 20:49 | 52.02949 | 6.24913 | 37097 ft | 504 kts | 99° |
| 2026-05-07 20:49 | 52.01901 | 6.36156 | 37100 ft | 504 kts | 99° |
| 2026-05-07 20:50 | 52.00846 | 6.47395 | 37091 ft | 503 kts | 100° |
| 2026-05-07 20:50 | 51.99780 | 6.58615 | 37090 ft | 503 kts | 100° |
| 2026-05-07 20:51 | 51.98706 | 6.69811 | 37101 ft | 503 kts | 100° |
| 2026-05-07 20:51 | 51.97618 | 6.81028 | 37098 ft | 504 kts | 100° |
| 2026-05-07 20:52 | 51.96516 | 6.92271 | 37096 ft | 503 kts | 100° |
| 2026-05-07 20:52 | 51.95406 | 7.03488 | 37099 ft | 503 kts | 100° |
| 2026-05-07 20:53 | 51.94286 | 7.14695 | 37098 ft | 503 kts | 100° |
| 2026-05-07 20:53 | 51.93162 | 7.25831 | 37104 ft | 503 kts | 100° |
| 2026-05-07 20:54 | 51.92019 | 7.37034 | 37096 ft | 503 kts | 100° |
| 2026-05-07 20:54 | 51.90866 | 7.48237 | 37096 ft | 503 kts | 101° |
| 2026-05-07 20:55 | 51.89704 | 7.59415 | 37105 ft | 503 kts | 101° |
| 2026-05-07 20:55 | 51.88540 | 7.70505 | 37104 ft | 503 kts | 101° |
| 2026-05-07 20:56 | 51.87354 | 7.81695 | 37093 ft | 503 kts | 101° |
| 2026-05-07 20:56 | 51.86162 | 7.92837 | 37106 ft | 503 kts | 101° |
| 2026-05-07 20:57 | 51.84959 | 8.03986 | 37108 ft | 503 kts | 101° |
| 2026-05-07 20:57 | 51.83743 | 8.15138 | 37108 ft | 503 kts | 101° |
| 2026-05-07 20:58 | 51.82515 | 8.26309 | 37104 ft | 503 kts | 101° |
| 2026-05-07 20:58 | 51.81287 | 8.37371 | 37100 ft | 503 kts | 101° |
| 2026-05-07 20:59 | 51.80036 | 8.48542 | 37098 ft | 503 kts | 101° |
| 2026-05-07 20:59 | 51.78778 | 8.59677 | 37100 ft | 503 kts | 101° |
| 2026-05-07 21:00 | 51.77512 | 8.70785 | 37101 ft | 503 kts | 101° |
| 2026-05-07 21:00 | 51.76238 | 8.81862 | 37100 ft | 503 kts | 101° |
| 2026-05-07 21:01 | 51.74942 | 8.93035 | 37104 ft | 503 kts | 101° |
| 2026-05-07 21:01 | 51.73653 | 9.04051 | 37108 ft | 503 kts | 101° |
| 2026-05-07 21:02 | 51.72343 | 9.15151 | 37112 ft | 503 kts | 101° |
| 2026-05-07 21:02 | 51.71021 | 9.26256 | 37112 ft | 503 kts | 101° |
| 2026-05-07 21:03 | 51.69699 | 9.37271 | 37123 ft | 503 kts | 101° |
| 2026-05-07 21:03 | 51.68360 | 9.48326 | 37123 ft | 503 kts | 102° |
| 2026-05-07 21:04 | 51.67008 | 9.59406 | 37123 ft | 503 kts | 102° |
| 2026-05-07 21:04 | 51.65646 | 9.70473 | 37122 ft | 503 kts | 102° |
| 2026-05-07 21:05 | 51.64272 | 9.81541 | 37114 ft | 504 kts | 102° |
| 2026-05-07 21:05 | 51.61870 | 10.00689 | 37115 ft | 504 kts | 102° |
| 2026-05-07 21:06 | 51.60463 | 10.11772 | 37113 ft | 505 kts | 102° |
| 2026-05-07 21:06 | 51.59056 | 10.22779 | 37121 ft | 506 kts | 102° |
| 2026-05-07 21:07 | 51.57628 | 10.33856 | 37123 ft | 506 kts | 102° |
| 2026-05-07 21:07 | 51.56189 | 10.44930 | 37125 ft | 506 kts | 102° |
| 2026-05-07 21:08 | 51.54743 | 10.55970 | 37118 ft | 506 kts | 102° |
| 2026-05-07 21:08 | 51.53109 | 10.66953 | 37118 ft | 505 kts | 108° |
| 2026-05-07 21:09 | 51.49716 | 10.84539 | 37123 ft | 505 kts | 108° |
| 2026-05-07 21:09 | 51.46268 | 11.02348 | 37118 ft | 504 kts | 108° |
| 2026-05-07 21:10 | 51.44182 | 11.13079 | 37110 ft | 505 kts | 108° |
| 2026-05-07 21:10 | 51.42072 | 11.23825 | 37105 ft | 505 kts | 108° |
| 2026-05-07 21:11 | 51.39955 | 11.34566 | 37112 ft | 505 kts | 108° |
| 2026-05-07 21:11 | 51.34821 | 11.60355 | 37110 ft | 505 kts | 108° |
| 2026-05-07 21:12 | 51.30502 | 11.81791 | 37107 ft | 505 kts | 109° |
| 2026-05-07 21:12 | 51.26151 | 12.03150 | 37105 ft | 505 kts | 109° |
| 2026-05-07 21:13 | 51.21789 | 12.24338 | 37099 ft | 505 kts | 109° |
| 2026-05-07 21:13 | 51.17361 | 12.45614 | 37100 ft | 505 kts | 109° |
| 2026-05-07 21:14 | 51.12893 | 12.66862 | 37096 ft | 505 kts | 109° |
| 2026-05-07 21:14 | 51.08410 | 12.87954 | 37094 ft | 507 kts | 110° |
| 2026-05-07 21:15 | 51.03857 | 13.09154 | 37086 ft | 506 kts | 110° |
| 2026-05-07 21:15 | 50.99265 | 13.30316 | 37086 ft | 506 kts | 110° |
| 2026-05-07 21:16 | 50.96672 | 13.48034 | 37091 ft | 509 kts | 93° |
| 2026-05-07 21:16 | 50.96380 | 13.59275 | 37102 ft | 509 kts | 92° |
| 2026-05-07 21:17 | 50.96133 | 13.70489 | 37100 ft | 509 kts | 92° |
| 2026-05-07 21:17 | 50.95924 | 13.81733 | 37104 ft | 509 kts | 92° |
| 2026-05-07 21:18 | 50.95752 | 13.92964 | 37099 ft | 509 kts | 92° |
| 2026-05-07 21:18 | 50.95613 | 14.04112 | 37093 ft | 509 kts | 91° |
| 2026-05-07 21:19 | 50.96003 | 14.09689 | 37134 ft | 509 kts | 76° |
| 2026-05-07 21:19 | 50.96920 | 14.15133 | 37098 ft | 510 kts | 76° |
| 2026-05-07 21:19 | 50.97502 | 14.20639 | 37156 ft | 507 kts | 92° |
| 2026-05-07 21:19 | 50.96978 | 14.26138 | 37174 ft | 504 kts | 112° |
| 2026-05-07 21:20 | 50.95490 | 14.31155 | 37146 ft | 503 kts | 123° |
| 2026-05-07 21:20 | 50.93551 | 14.35767 | 37100 ft | 501 kts | 128° |
| 2026-05-07 21:20 | 50.89214 | 14.44398 | 37078 ft | 501 kts | 132° |
| 2026-05-07 21:21 | 50.84685 | 14.52797 | 37081 ft | 501 kts | 133° |
| 2026-05-07 21:21 | 50.80122 | 14.61121 | 37077 ft | 501 kts | 133° |
| 2026-05-07 21:22 | 50.75574 | 14.69377 | 37066 ft | 500 kts | 133° |
| 2026-05-07 21:22 | 50.71011 | 14.77660 | 37064 ft | 500 kts | 133° |
| 2026-05-07 21:23 | 50.66449 | 14.85934 | 37058 ft | 500 kts | 133° |
| 2026-05-07 21:23 | 50.61883 | 14.94203 | 37052 ft | 500 kts | 133° |
| 2026-05-07 21:24 | 50.50844 | 15.14227 | 37038 ft | 500 kts | 133° |
| 2026-05-07 21:24 | 50.42159 | 15.31345 | 37036 ft | 502 kts | 129° |
| 2026-05-07 21:25 | 50.33418 | 15.48208 | 37025 ft | 501 kts | 131° |
| 2026-05-07 21:25 | 50.24664 | 15.65213 | 37041 ft | 502 kts | 131° |
| 2026-05-07 21:26 | 50.15967 | 15.82214 | 37037 ft | 501 kts | 131° |
| 2026-05-07 21:26 | 50.07262 | 15.99192 | 37022 ft | 500 kts | 131° |
| 2026-05-07 21:27 | 49.98567 | 16.16104 | 37021 ft | 498 kts | 131° |
| 2026-05-07 21:27 | 49.90212 | 16.33162 | 37042 ft | 500 kts | 122° |
| 2026-05-07 21:28 | 49.84418 | 16.52935 | 37022 ft | 502 kts | 120° |
| 2026-05-07 21:28 | 49.76812 | 16.75402 | 37046 ft | 500 kts | 121° |
| 2026-05-07 21:29 | 49.70060 | 16.94179 | 37022 ft | 499 kts | 123° |
| 2026-05-07 21:29 | 49.63277 | 17.12851 | 37021 ft | 498 kts | 123° |
| 2026-05-07 21:30 | 49.57921 | 17.27498 | 37022 ft | 498 kts | 123° |
| 2026-05-07 21:30 | 49.54494 | 17.36784 | 37024 ft | 497 kts | 123° |
| 2026-05-07 21:31 | 49.51069 | 17.46062 | 37029 ft | 497 kts | 123° |
| 2026-05-07 21:31 | 49.47660 | 17.55244 | 37030 ft | 497 kts | 123° |
| 2026-05-07 21:32 | 49.44225 | 17.64477 | 37033 ft | 497 kts | 123° |
| 2026-05-07 21:32 | 49.40778 | 17.73700 | 37031 ft | 497 kts | 124° |
| 2026-05-07 21:33 | 49.37912 | 17.81346 | 37036 ft | 497 kts | 124° |
| 2026-05-07 21:33 | 49.33891 | 17.92037 | 37037 ft | 497 kts | 124° |
| 2026-05-07 21:34 | 49.30997 | 17.99706 | 37039 ft | 497 kts | 124° |
| 2026-05-07 21:34 | 49.25790 | 18.13446 | 37037 ft | 496 kts | 124° |
| 2026-05-07 21:35 | 49.18619 | 18.31450 | 37054 ft | 495 kts | 126° |
| 2026-05-07 21:35 | 49.11367 | 18.49397 | 37054 ft | 497 kts | 126° |
| 2026-05-07 21:36 | 49.04105 | 18.67246 | 37054 ft | 497 kts | 126° |
| 2026-05-07 21:36 | 48.96787 | 18.85109 | 37054 ft | 496 kts | 127° |
| 2026-05-07 21:37 | 48.89443 | 19.02915 | 37058 ft | 496 kts | 127° |
| 2026-05-07 21:37 | 48.82074 | 19.20665 | 37055 ft | 496 kts | 127° |
| 2026-05-07 21:38 | 48.74686 | 19.38340 | 37055 ft | 498 kts | 127° |
| 2026-05-07 21:38 | 48.67241 | 19.56034 | 37047 ft | 498 kts | 127° |
| 2026-05-07 21:39 | 48.59752 | 19.73718 | 37046 ft | 498 kts | 128° |
| 2026-05-07 21:39 | 48.52260 | 19.91292 | 37043 ft | 498 kts | 127° |
| 2026-05-07 21:40 | 48.44766 | 20.08759 | 37041 ft | 498 kts | 128° |
| 2026-05-07 21:40 | 48.37222 | 20.26225 | 37041 ft | 499 kts | 128° |
| 2026-05-07 21:41 | 48.29670 | 20.43774 | 37045 ft | 501 kts | 126° |
| 2026-05-07 21:41 | 48.22234 | 20.61461 | 37035 ft | 502 kts | 127° |
| 2026-05-07 21:42 | 48.14749 | 20.79135 | 37037 ft | 502 kts | 127° |
| 2026-05-07 21:42 | 48.07285 | 20.96634 | 37046 ft | 501 kts | 127° |
| 2026-05-07 21:43 | 47.99770 | 21.14129 | 37044 ft | 501 kts | 127° |
| 2026-05-07 21:43 | 47.92198 | 21.31641 | 37031 ft | 502 kts | 127° |
| 2026-05-07 21:44 | 47.84600 | 21.49102 | 37032 ft | 502 kts | 128° |
| 2026-05-07 21:44 | 47.76986 | 21.66488 | 37038 ft | 500 kts | 128° |
| 2026-05-07 21:45 | 47.69366 | 21.83781 | 37045 ft | 500 kts | 128° |
| 2026-05-07 21:45 | 47.61781 | 22.00887 | 37034 ft | 498 kts | 128° |
| 2026-05-07 21:46 | 47.53665 | 22.17431 | 37043 ft | 495 kts | 133° |
| 2026-05-07 21:46 | 47.44977 | 22.33253 | 37040 ft | 495 kts | 133° |
| 2026-05-07 21:47 | 47.36315 | 22.48901 | 37046 ft | 494 kts | 134° |
| 2026-05-07 21:47 | 47.31935 | 22.56778 | 36620 ft | 497 kts | 133° |
| 2026-05-07 21:47 | 47.27492 | 22.64729 | 36106 ft | 496 kts | 134° |
| 2026-05-07 21:48 | 47.23160 | 22.72461 | 35630 ft | 495 kts | 134° |
| 2026-05-07 21:48 | 47.18766 | 22.80283 | 35136 ft | 496 kts | 134° |
| 2026-05-07 21:48 | 47.14350 | 22.88120 | 34663 ft | 493 kts | 134° |
| 2026-05-07 21:48 | 47.09978 | 22.95860 | 34197 ft | 492 kts | 134° |
| 2026-05-07 21:49 | 47.05604 | 23.03577 | 33636 ft | 492 kts | 134° |
| 2026-05-07 21:49 | 47.01248 | 23.11246 | 32828 ft | 485 kts | 134° |
| 2026-05-07 21:49 | 46.96980 | 23.18738 | 32011 ft | 472 kts | 133° |
| 2026-05-07 21:49 | 46.92770 | 23.26097 | 31270 ft | 475 kts | 133° |
| 2026-05-07 21:50 | 46.88601 | 23.33383 | 30522 ft | 468 kts | 133° |
| 2026-05-07 21:50 | 46.84430 | 23.40639 | 29722 ft | 466 kts | 134° |
| 2026-05-07 21:50 | 46.80271 | 23.47863 | 28872 ft | 460 kts | 133° |
| 2026-05-07 21:50 | 46.76177 | 23.54951 | 28060 ft | 453 kts | 133° |
| 2026-05-07 21:51 | 46.72129 | 23.61943 | 27280 ft | 450 kts | 133° |
| 2026-05-07 21:51 | 46.68117 | 23.68857 | 26518 ft | 446 kts | 133° |
| 2026-05-07 21:51 | 46.64119 | 23.75726 | 25774 ft | 440 kts | 133° |
| 2026-05-07 21:51 | 46.60170 | 23.82497 | 25040 ft | 436 kts | 133° |
| 2026-05-07 21:52 | 46.56268 | 23.89170 | 24316 ft | 433 kts | 133° |
| 2026-05-07 21:52 | 46.52371 | 23.95818 | 23636 ft | 430 kts | 133° |
| 2026-05-07 21:52 | 46.48511 | 24.02386 | 22834 ft | 426 kts | 133° |
| 2026-05-07 21:52 | 46.44737 | 24.08795 | 22044 ft | 417 kts | 133° |
| 2026-05-07 21:53 | 46.40946 | 24.15215 | 21262 ft | 413 kts | 133° |
| 2026-05-07 21:53 | 46.37219 | 24.21514 | 20524 ft | 409 kts | 133° |
| 2026-05-07 21:53 | 46.33587 | 24.27638 | 19792 ft | 403 kts | 133° |
| 2026-05-07 21:53 | 46.29950 | 24.33756 | 19073 ft | 398 kts | 133° |
| 2026-05-07 21:54 | 46.26345 | 24.39809 | 18364 ft | 394 kts | 133° |
| 2026-05-07 21:54 | 46.22795 | 24.45754 | 17587 ft | 389 kts | 133° |
| 2026-05-07 21:54 | 46.19271 | 24.51644 | 16806 ft | 385 kts | 133° |
| 2026-05-07 21:54 | 46.15778 | 24.57469 | 16043 ft | 382 kts | 133° |
| 2026-05-07 21:55 | 46.12316 | 24.63231 | 15302 ft | 377 kts | 134° |
| 2026-05-07 21:55 | 46.08896 | 24.68912 | 14576 ft | 374 kts | 134° |
| 2026-05-07 21:55 | 46.05538 | 24.74477 | 13876 ft | 371 kts | 134° |
| 2026-05-07 21:55 | 46.02171 | 24.80047 | 13081 ft | 367 kts | 134° |
| 2026-05-07 21:56 | 45.98836 | 24.85553 | 12319 ft | 363 kts | 134° |
| 2026-05-07 21:56 | 45.95527 | 24.91004 | 11551 ft | 357 kts | 134° |
| 2026-05-07 21:56 | 45.92278 | 24.96346 | 10833 ft | 354 kts | 134° |
| 2026-05-07 21:56 | 45.89037 | 25.01665 | 10125 ft | 352 kts | 134° |
| 2026-05-07 21:57 | 45.85833 | 25.06912 | 10061 ft | 355 kts | 134° |
| 2026-05-07 21:57 | 45.82602 | 25.12197 | 10064 ft | 353 kts | 134° |
| 2026-05-07 21:57 | 45.79367 | 25.17474 | 10059 ft | 356 kts | 134° |
| 2026-05-07 21:57 | 45.74396 | 25.25565 | 10058 ft | 355 kts | 134° |
| 2026-05-07 21:58 | 45.70782 | 25.31435 | 10068 ft | 354 kts | 134° |
| 2026-05-07 21:58 | 45.67517 | 25.36725 | 10061 ft | 354 kts | 134° |
| 2026-05-07 21:58 | 45.64310 | 25.41917 | 10057 ft | 334 kts | 134° |
| 2026-05-07 21:58 | 45.60389 | 25.48248 | 10045 ft | 298 kts | 135° |
| 2026-05-07 21:59 | 45.54007 | 25.58514 | 10084 ft | 294 kts | 135° |
| 2026-05-07 21:59 | 45.49564 | 25.65636 | 10089 ft | 297 kts | 135° |
| 2026-05-07 21:59 | 45.46840 | 25.69997 | 10092 ft | 295 kts | 135° |
| 2026-05-07 21:59 | 45.44119 | 25.74348 | 10069 ft | 290 kts | 136° |
| 2026-05-07 22:00 | 45.41422 | 25.78647 | 10085 ft | 293 kts | 136° |
| 2026-05-07 22:00 | 45.38724 | 25.82949 | 10086 ft | 291 kts | 136° |
| 2026-05-07 22:00 | 45.36026 | 25.87241 | 10087 ft | 289 kts | 135° |
| 2026-05-07 22:00 | 45.33300 | 25.91568 | 10084 ft | 292 kts | 135° |
| 2026-05-07 22:01 | 45.27521 | 26.00722 | 10084 ft | 288 kts | 135° |
| 2026-05-07 22:01 | 45.24826 | 26.04987 | 9937 ft | 294 kts | 135° |
| 2026-05-07 22:01 | 45.18067 | 26.15646 | 8629 ft | 285 kts | 136° |
| 2026-05-07 22:01 | 45.07463 | 26.32280 | 6652 ft | 281 kts | 135° |
| 2026-05-07 22:02 | 45.04933 | 26.36229 | 6145 ft | 280 kts | 135° |
| 2026-05-07 22:02 | 45.03641 | 26.38245 | 5897 ft | 280 kts | 135° |
| 2026-05-07 22:02 | 45.01448 | 26.41664 | 5475 ft | 278 kts | 136° |
| 2026-05-07 22:02 | 44.99947 | 26.43279 | 5248 ft | 269 kts | 160° |
| 2026-05-07 22:03 | 44.98155 | 26.43882 | 5077 ft | 263 kts | 176° |
| 2026-05-07 22:03 | 44.96331 | 26.44146 | 5087 ft | 267 kts | 178° |
| 2026-05-07 22:03 | 44.94472 | 26.44391 | 5076 ft | 267 kts | 177° |
| 2026-05-07 22:03 | 44.92635 | 26.44652 | 5082 ft | 265 kts | 177° |
| 2026-05-07 22:04 | 44.90781 | 26.44922 | 5075 ft | 268 kts | 177° |
| 2026-05-07 22:04 | 44.88925 | 26.45189 | 5075 ft | 268 kts | 177° |
| 2026-05-07 22:04 | 44.87071 | 26.45453 | 5077 ft | 267 kts | 177° |
| 2026-05-07 22:04 | 44.85217 | 26.45615 | 5079 ft | 265 kts | 186° |
| 2026-05-07 22:05 | 44.83420 | 26.45119 | 5079 ft | 264 kts | 202° |
| 2026-05-07 22:05 | 44.81804 | 26.43919 | 5077 ft | 263 kts | 218° |
| 2026-05-07 22:05 | 44.80529 | 26.42153 | 5080 ft | 260 kts | 234° |
| 2026-05-07 22:05 | 44.79658 | 26.39898 | 5072 ft | 260 kts | 250° |
| 2026-05-07 22:06 | 44.78809 | 26.37703 | 5084 ft | 259 kts | 237° |
| 2026-05-07 22:06 | 44.77915 | 26.35548 | 5054 ft | 250 kts | 242° |
| 2026-05-07 22:06 | 44.77114 | 26.33400 | 4941 ft | 244 kts | 243° |
| 2026-05-07 22:06 | 44.76347 | 26.31298 | 4823 ft | 239 kts | 243° |
| 2026-05-07 22:07 | 44.75596 | 26.29240 | 4698 ft | 234 kts | 243° |
| 2026-05-07 22:07 | 44.74858 | 26.27220 | 4578 ft | 229 kts | 243° |
| 2026-05-07 22:07 | 44.74138 | 26.25241 | 4459 ft | 225 kts | 243° |
| 2026-05-07 22:07 | 44.73444 | 26.23332 | 4319 ft | 221 kts | 243° |
| 2026-05-07 22:08 | 44.72747 | 26.21421 | 4202 ft | 217 kts | 243° |
| 2026-05-07 22:08 | 44.72063 | 26.19551 | 4076 ft | 213 kts | 243° |
| 2026-05-07 22:08 | 44.71388 | 26.17715 | 3950 ft | 211 kts | 243° |
| 2026-05-07 22:08 | 44.70714 | 26.15884 | 3850 ft | 213 kts | 243° |
| 2026-05-07 22:09 | 44.70021 | 26.14021 | 3754 ft | 216 kts | 243° |
| 2026-05-07 22:09 | 44.69322 | 26.12159 | 3647 ft | 213 kts | 243° |
| 2026-05-07 22:09 | 44.68632 | 26.10324 | 3540 ft | 212 kts | 243° |
| 2026-05-07 22:09 | 44.67045 | 26.06126 | 3330 ft | 213 kts | 243° |
| 2026-05-07 22:10 | 44.65810 | 26.02391 | 3132 ft | 208 kts | 260° |
| 2026-05-07 22:10 | 44.65325 | 25.98358 | 3056 ft | 208 kts | 263° |
| 2026-05-07 22:10 | 44.64947 | 25.94300 | 3053 ft | 209 kts | 263° |
| 2026-05-07 22:10 | 44.64584 | 25.90271 | 3058 ft | 210 kts | 263° |
| 2026-05-07 22:11 | 44.64215 | 25.86165 | 3055 ft | 209 kts | 263° |
| 2026-05-07 22:11 | 44.63853 | 25.82148 | 3065 ft | 210 kts | 263° |
| 2026-05-07 22:11 | 44.63485 | 25.78080 | 3062 ft | 210 kts | 263° |
| 2026-05-07 22:11 | 44.63120 | 25.74024 | 3067 ft | 210 kts | 263° |
| 2026-05-07 22:12 | 44.62771 | 25.69968 | 3056 ft | 210 kts | 263° |
| 2026-05-07 22:12 | 44.62428 | 25.65907 | 3059 ft | 209 kts | 263° |
| 2026-05-07 22:12 | 44.62085 | 25.61858 | 3069 ft | 209 kts | 263° |
| 2026-05-07 22:12 | 44.61743 | 25.57802 | 3067 ft | 208 kts | 263° |
| 2026-05-07 22:13 | 44.61041 | 25.49550 | 3055 ft | 208 kts | 263° |
| 2026-05-07 22:13 | 44.60608 | 25.45426 | 3053 ft | 210 kts | 242° |
| 2026-05-07 22:13 | 44.58035 | 25.43854 | 3078 ft | 222 kts | 178° |
| 2026-05-07 22:13 | 44.54994 | 25.44434 | 3071 ft | 223 kts | 174° |
| 2026-05-07 22:14 | 44.52302 | 25.46259 | 3088 ft | 235 kts | 116° |
| 2026-05-07 22:14 | 44.51951 | 25.49348 | 3096 ft | 230 kts | 88° |
| 2026-05-07 22:14 | 44.52048 | 25.51547 | 3088 ft | 228 kts | 85° |
| 2026-05-07 22:14 | 44.52224 | 25.53815 | 3081 ft | 234 kts | 83° |
| 2026-05-07 22:15 | 44.52431 | 25.56012 | 3068 ft | 217 kts | 82° |
| 2026-05-07 22:15 | 44.52627 | 25.58029 | 3047 ft | 200 kts | 81° |
| 2026-05-07 22:15 | 44.52828 | 25.59927 | 3060 ft | 203 kts | 81° |
| 2026-05-07 22:15 | 44.53040 | 25.61893 | 3044 ft | 202 kts | 81° |
| 2026-05-07 22:16 | 44.53253 | 25.63848 | 3065 ft | 206 kts | 81° |
| 2026-05-07 22:16 | 44.53453 | 25.65809 | 3058 ft | 201 kts | 83° |
| 2026-05-07 22:16 | 44.53598 | 25.67792 | 3035 ft | 207 kts | 84° |
| 2026-05-07 22:16 | 44.53733 | 25.69769 | 2979 ft | 200 kts | 84° |
| 2026-05-07 22:17 | 44.53916 | 25.71728 | 2926 ft | 204 kts | 79° |
| 2026-05-07 22:17 | 44.54174 | 25.73667 | 2879 ft | 201 kts | 78° |
| 2026-05-07 22:17 | 44.54442 | 25.75597 | 2829 ft | 202 kts | 78° |
| 2026-05-07 22:17 | 44.55227 | 25.81187 | 2696 ft | 204 kts | 78° |
| 2026-05-07 22:18 | 44.55762 | 25.85007 | 2578 ft | 202 kts | 78° |
| 2026-05-07 22:18 | 44.56318 | 25.88889 | 2465 ft | 202 kts | 64° |
| 2026-05-07 22:18 | 44.59280 | 25.96055 | 2285 ft | 199 kts | 56° |
| 2026-05-07 22:19 | 44.60598 | 25.99407 | 2157 ft | 202 kts | 81° |
| 2026-05-07 22:19 | 44.59813 | 26.03046 | 2107 ft | 198 kts | 149° |
| 2026-05-07 22:19 | 44.57303 | 26.04328 | 2027 ft | 187 kts | 149° |
| 2026-05-07 22:19 | 44.55190 | 26.06164 | 1946 ft | 180 kts | 180° |
| 2026-05-07 22:20 | 44.53562 | 26.03904 | 1695 ft | 188 kts | 247° |
| 2026-05-07 22:20 | 44.52660 | 26.00445 | 1705 ft | 174 kts | 257° |
| 2026-05-07 22:20 | 44.52111 | 25.97194 | 1430 ft | 153 kts | 258° |
| 2026-05-07 22:20 | 44.51614 | 25.94256 | 2085 ft | 162 kts | 258° |
| 2026-05-07 22:21 | 44.51082 | 25.91079 | 2759 ft | 172 kts | 258° |
| 2026-05-07 22:21 | 44.50505 | 25.87594 | 3067 ft | 200 kts | 257° |
| 2026-05-07 22:21 | 44.49874 | 25.83756 | 3061 ft | 205 kts | 257° |
| 2026-05-07 22:21 | 44.49247 | 25.79928 | 3055 ft | 203 kts | 257° |
| 2026-05-07 22:22 | 44.48620 | 25.76079 | 3057 ft | 202 kts | 258° |
| 2026-05-07 22:22 | 44.47993 | 25.72223 | 3060 ft | 203 kts | 258° |
| 2026-05-07 22:22 | 44.47371 | 25.68387 | 3065 ft | 204 kts | 258° |
| 2026-05-07 22:22 | 44.46749 | 25.64540 | 3063 ft | 204 kts | 258° |
| 2026-05-07 22:23 | 44.46128 | 25.60686 | 3060 ft | 202 kts | 258° |
| 2026-05-07 22:23 | 44.45508 | 25.56829 | 3057 ft | 203 kts | 258° |
| 2026-05-07 22:23 | 44.45099 | 25.54280 | 3061 ft | 202 kts | 257° |
| 2026-05-07 22:23 | 44.44482 | 25.50427 | 3062 ft | 203 kts | 257° |
| 2026-05-07 22:24 | 44.43865 | 25.46561 | 3062 ft | 203 kts | 257° |
| 2026-05-07 22:24 | 44.43262 | 25.42771 | 3064 ft | 203 kts | 257° |
| 2026-05-07 22:24 | 44.42637 | 25.38844 | 3060 ft | 203 kts | 257° |
| 2026-05-07 22:24 | 44.42022 | 25.34979 | 3061 ft | 203 kts | 257° |
| 2026-05-07 22:25 | 44.41400 | 25.31068 | 3050 ft | 209 kts | 257° |
| 2026-05-07 22:25 | 44.42119 | 25.27881 | 3074 ft | 187 kts | 337° |
| 2026-05-07 22:25 | 44.44338 | 25.29348 | 3082 ft | 204 kts | 68° |
| 2026-05-07 22:25 | 44.45280 | 25.33095 | 3066 ft | 206 kts | 77° |
| 2026-05-07 22:26 | 44.45883 | 25.36973 | 3066 ft | 205 kts | 78° |
| 2026-05-07 22:26 | 44.46744 | 25.42555 | 3062 ft | 201 kts | 78° |
| 2026-05-07 22:26 | 44.47333 | 25.46434 | 3056 ft | 204 kts | 78° |
| 2026-05-07 22:26 | 44.47905 | 25.50322 | 3061 ft | 205 kts | 78° |
| 2026-05-07 22:27 | 44.48468 | 25.54232 | 3054 ft | 205 kts | 79° |
| 2026-05-07 22:27 | 44.49910 | 25.57375 | 3070 ft | 198 kts | 15° |
| 2026-05-07 22:27 | 44.52150 | 25.56283 | 3069 ft | 181 kts | 295° |
| 2026-05-07 22:27 | 44.52324 | 25.53179 | 3066 ft | 179 kts | 264° |
| 2026-05-07 22:28 | 44.52689 | 25.50798 | 3100 ft | 184 kts | 308° |
| 2026-05-07 22:28 | 44.57711 | 25.55412 | 3104 ft | 198 kts | 100° |
| 2026-05-07 22:28 | 44.57414 | 25.57355 | 3175 ft | 201 kts | 105° |
| 2026-05-07 22:28 | 44.57084 | 25.59160 | 3774 ft | 189 kts | 107° |
| 2026-05-07 22:29 | 44.56535 | 25.60918 | 4056 ft | 207 kts | 122° |
| 2026-05-07 22:29 | 44.55319 | 25.63807 | 4057 ft | 203 kts | 121° |
| 2026-05-07 22:29 | 44.53698 | 25.68159 | 4051 ft | 200 kts | 120° |
| 2026-05-07 22:29 | 44.53493 | 25.72067 | 4056 ft | 203 kts | 86° |
| 2026-05-07 22:30 | 44.53711 | 25.76021 | 4052 ft | 203 kts | 86° |
| 2026-05-07 22:30 | 44.53939 | 25.79989 | 4054 ft | 205 kts | 86° |
| 2026-05-07 22:30 | 44.54165 | 25.83948 | 4054 ft | 204 kts | 85° |
| 2026-05-07 22:30 | 44.54798 | 25.87779 | 4054 ft | 204 kts | 81° |
| 2026-05-07 22:31 | 44.55385 | 25.91721 | 4050 ft | 206 kts | 81° |
| 2026-05-07 22:31 | 44.55795 | 25.95629 | 4056 ft | 207 kts | 82° |
| 2026-05-07 22:31 | 44.55972 | 25.97436 | 4052 ft | 204 kts | 82° |
| 2026-05-07 22:31 | 44.56066 | 25.98433 | 3991 ft | 209 kts | 84° |
| 2026-05-07 22:32 | 44.56141 | 25.99440 | 3917 ft | 208 kts | 84° |
| 2026-05-07 22:32 | 44.56237 | 26.00437 | 3778 ft | 206 kts | 77° |
| 2026-05-07 22:32 | 44.56417 | 26.01412 | 3711 ft | 201 kts | 73° |
| 2026-05-07 22:32 | 44.56608 | 26.02329 | 3183 ft | 204 kts | 73° |
| 2026-05-07 22:33 | 44.56839 | 26.03404 | 1954 ft | 253 kts | 71° |
| 2026-05-07 22:33 | 44.57108 | 26.04619 | 1269 ft | 268 kts | 71° |
| 2026-05-07 22:33 | 44.57367 | 26.05822 | 1203 ft | 242 kts | 72° |
| 2026-05-07 22:33 | 44.57603 | 26.07635 | 520 ft | 220 kts | 83° |
| 2026-05-07 22:34 | 44.57729 | 26.09515 | 316 ft | 161 kts | 84° |
| 2026-05-07 22:34 | 44.57830 | 26.10711 | 316 ft | 89 kts | 91° |
| 2026-05-07 22:34 | 44.57690 | 26.11251 | 315 ft | 35 kts | 161° |
| 2026-05-07 22:34 | 44.57632 | 26.11171 | 314 ft | 10 kts | 320° |
| 2026-05-07 22:35 | 44.57678 | 26.10971 | 315 ft | 27 kts | 266° |
| 2026-05-07 22:35 | 44.57662 | 26.10725 | 316 ft | 24 kts | 263° |
| 2026-05-07 22:35 | 44.57628 | 26.10284 | 317 ft | 57 kts | 264° |
| 2026-05-07 22:35 | 44.57572 | 26.09849 | 318 ft | 30 kts | 221° |
| 2026-05-07 22:36 | 44.57399 | 26.09847 | 317 ft | 22 kts | 181° |
| 2026-05-07 22:36 | 44.57358 | 26.09741 | 317 ft | 9 kts | 314° |
| 2026-05-07 22:36 | 44.57382 | 26.09731 | 318 ft | 0 kts | 1° |